Time;durP1;ratioP1;P1;durP2;ratioP2;P2;SDS_P1;SDS_P2;PMS_P1;PMS_P2;Temp;Humidity;BMP_temperature;BMP_pressure;BME280_temperature;BME280_humidity;BME280_pressure;Samples;Min_cycle;Max_cycle;Signal;HPM_P1;HPM_P2
2021/03/01 00:00:41;;;;;;;183.50;33.78;;;2.50;99.90;;;;;;4972277;28;20074;-75
2021/03/01 00:03:08;;;;;;;181.85;30.45;;;2.50;99.90;;;;;;4988249;28;20042;-75
2021/03/01 00:05:35;;;;;;;254.85;40.65;;;2.40;99.90;;;;;;4987350;28;20050;-76
2021/03/01 00:08:02;;;;;;;236.00;34.15;;;2.40;99.90;;;;;;4971897;28;20145;-75
2021/03/01 00:10:29;;;;;;;228.52;39.80;;;2.30;99.90;;;;;;4972091;28;20458;-75
2021/03/01 00:12:55;;;;;;;148.48;31.42;;;2.30;99.90;;;;;;4970514;28;20050;-76
2021/03/01 00:15:23;;;;;;;136.77;28.50;;;2.30;99.90;;;;;;4972438;28;20073;-74
2021/03/01 00:17:50;;;;;;;116.78;28.08;;;2.30;99.90;;;;;;4988136;28;20093;-75
2021/03/01 00:20:16;;;;;;;112.68;29.35;;;2.30;99.90;;;;;;4985745;28;20050;-75
2021/03/01 00:22:44;;;;;;;166.75;30.17;;;2.30;99.90;;;;;;5006324;28;20058;-74
2021/03/01 00:25:12;;;;;;;127.18;29.52;;;2.20;99.90;;;;;;4988590;28;20062;-76
2021/03/01 00:27:38;;;;;;;184.57;29.15;;;2.20;99.90;;;;;;4971682;28;20069;-74
2021/03/01 00:30:07;;;;;;;214.55;33.60;;;2.20;99.90;;;;;;4989614;28;20057;-75
2021/03/01 00:32:34;;;;;;;211.30;33.28;;;2.20;99.90;;;;;;4971029;28;20053;-75
2021/03/01 00:35:01;;;;;;;145.05;30.27;;;2.20;99.90;;;;;;4984493;28;20070;-75
2021/03/01 00:37:27;;;;;;;134.32;25.55;;;2.30;99.90;;;;;;4951397;28;20523;-74
2021/03/01 00:39:53;;;;;;;137.07;26.13;;;2.20;99.90;;;;;;4989393;28;20294;-77
2021/03/01 00:42:19;;;;;;;263.55;39.35;;;2.20;99.90;;;;;;4986793;28;20046;-74
2021/03/01 00:44:46;;;;;;;191.68;31.95;;;2.30;99.90;;;;;;4972341;28;20499;-74
2021/03/01 00:47:12;;;;;;;193.98;31.85;;;2.40;99.90;;;;;;4971502;28;20598;-74
2021/03/01 00:49:39;;;;;;;191.38;32.83;;;2.40;99.90;;;;;;4987726;28;20133;-73
2021/03/01 00:52:06;;;;;;;141.10;27.30;;;2.50;99.90;;;;;;4986021;28;20050;-74
2021/03/01 00:54:32;;;;;;;192.88;33.83;;;2.40;99.90;;;;;;4994441;28;20133;-74
2021/03/01 00:56:58;;;;;;;208.80;39.47;;;2.30;99.90;;;;;;4991410;28;20065;-74
2021/03/01 00:59:26;;;;;;;219.75;36.75;;;2.30;99.90;;;;;;4955602;28;20050;-74
2021/03/01 01:02:08;;;;;;;205.55;38.00;;;2.30;99.90;;;;;;4986469;28;20050;-76
2021/03/01 01:04:41;;;;;;;191.32;32.70;;;2.40;99.90;;;;;;4970694;28;20077;-75
2021/03/01 01:07:08;;;;;;;214.35;38.75;;;2.30;99.90;;;;;;4969725;28;20050;-75
2021/03/01 01:09:34;;;;;;;276.13;43.83;;;2.50;99.90;;;;;;4987804;28;20046;-74
2021/03/01 01:12:00;;;;;;;348.63;48.10;;;2.50;99.90;;;;;;4982121;28;20053;-74
2021/03/01 01:14:27;;;;;;;178.55;33.80;;;2.40;99.90;;;;;;4987220;28;20058;-75
2021/03/01 01:16:53;;;;;;;217.93;38.25;;;2.50;99.90;;;;;;4970577;28;20055;-75
2021/03/01 01:19:20;;;;;;;271.45;37.90;;;2.60;99.90;;;;;;4987335;28;20046;-74
2021/03/01 01:21:46;;;;;;;237.75;36.75;;;2.60;99.90;;;;;;4953873;28;20129;-74
2021/03/01 01:24:12;;;;;;;170.13;33.85;;;2.50;99.90;;;;;;4987722;28;20502;-75
2021/03/01 01:26:39;;;;;;;194.98;32.95;;;2.40;99.90;;;;;;4990729;28;20054;-75
2021/03/01 01:29:05;;;;;;;144.50;29.38;;;2.30;99.90;;;;;;4969942;28;20054;-74
2021/03/01 01:31:31;;;;;;;140.55;28.17;;;2.30;99.90;;;;;;4986304;28;20573;-74
2021/03/01 01:33:57;;;;;;;211.82;35.08;;;2.30;99.90;;;;;;4986550;28;20057;-76
2021/03/01 01:36:24;;;;;;;176.50;34.53;;;2.40;99.90;;;;;;4951877;28;20050;-76
2021/03/01 01:38:51;;;;;;;159.55;26.75;;;2.30;99.90;;;;;;4970960;28;20077;-76
2021/03/01 01:41:19;;;;;;;138.98;26.77;;;2.30;99.90;;;;;;4983687;28;20053;-76
2021/03/01 01:43:46;;;;;;;148.77;29.55;;;2.20;99.90;;;;;;4969859;28;20054;-76
2021/03/01 01:46:13;;;;;;;179.18;31.63;;;2.30;99.90;;;;;;4954043;28;20050;-75
2021/03/01 01:48:39;;;;;;;134.48;24.75;;;2.10;99.90;;;;;;4986993;28;20133;-76
2021/03/01 01:51:05;;;;;;;186.23;31.20;;;2.00;99.90;;;;;;4986420;28;20119;-75
2021/03/01 01:53:32;;;;;;;235.85;33.63;;;2.00;99.90;;;;;;4986434;28;20499;-75
2021/03/01 01:55:59;;;;;;;222.95;31.48;;;2.00;99.90;;;;;;4998762;28;20058;-75
2021/03/01 01:58:26;;;;;;;283.98;41.15;;;2.00;99.90;;;;;;4982810;28;20069;-74
2021/03/01 02:00:53;;;;;;;332.30;43.30;;;1.90;99.90;;;;;;4950066;28;20526;-75
2021/03/01 02:03:37;;;;;;;289.65;46.92;;;1.90;99.90;;;;;;4983237;28;20603;-74
2021/03/01 02:06:30;;;;;;;239.35;34.30;;;2.00;99.90;;;;;;4987576;28;20050;-74
2021/03/01 02:09:02;;;;;;;267.20;34.25;;;2.00;99.90;;;;;;5002340;28;20058;-76
2021/03/01 02:11:44;;;;;;;222.02;32.20;;;1.90;99.90;;;;;;4987301;28;20046;-75
2021/03/01 02:14:43;;;;;;;142.65;25.63;;;1.90;99.90;;;;;;4969303;28;20053;-75
2021/03/01 02:17:10;;;;;;;251.35;34.20;;;1.90;99.90;;;;;;4984854;28;20054;-75
2021/03/01 02:19:37;;;;;;;180.77;26.33;;;1.90;99.90;;;;;;4994743;28;20073;-75
2021/03/01 02:22:41;;;;;;;226.70;38.58;;;1.90;99.90;;;;;;4951348;28;20054;-74
2021/03/01 02:25:11;;;;;;;228.88;34.25;;;1.80;99.90;;;;;;4985509;28;20076;-76
2021/03/01 02:28:01;;;;;;;193.98;32.97;;;1.90;99.90;;;;;;4992284;28;20054;-74
2021/03/01 02:30:33;;;;;;;235.25;37.05;;;1.90;99.90;;;;;;4983274;28;20050;-75
2021/03/01 02:33:08;;;;;;;239.52;35.95;;;1.80;99.90;;;;;;4986147;28;20046;-76
2021/03/01 02:35:37;;;;;;;;;;;1.80;99.90;;;;;;4984945;28;20746;-76
2021/03/01 02:38:07;;;;;;;198.18;26.48;;;1.90;99.90;;;;;;4986595;28;19925;-76
2021/03/01 02:40:37;;;;;;;137.32;25.17;;;2.00;99.90;;;;;;4969389;28;20066;-75
2021/03/01 02:43:04;;;;;;;159.60;27.48;;;2.10;99.90;;;;;;4985152;28;20054;-75
2021/03/01 02:45:31;;;;;;;127.55;27.75;;;2.00;99.90;;;;;;4984843;28;20073;-74
2021/03/01 02:48:01;;;;;;;256.67;37.72;;;2.00;99.90;;;;;;4985438;28;20574;-75
2021/03/01 02:50:29;;;;;;;181.60;28.30;;;2.10;99.90;;;;;;4969274;28;20587;-75
2021/03/01 02:52:56;;;;;;;128.00;26.40;;;2.10;99.90;;;;;;4984419;28;20064;-74
2021/03/01 02:55:24;;;;;;;183.48;30.80;;;2.10;99.90;;;;;;4995877;28;20046;-75
2021/03/01 02:58:06;;;;;;;164.20;25.35;;;2.00;99.90;;;;;;4983920;28;20046;-73
2021/03/01 03:00:33;;;;;;;129.73;25.75;;;1.90;99.90;;;;;;4984418;28;20499;-75
2021/03/01 03:03:00;;;;;;;139.55;26.65;;;1.90;99.90;;;;;;4969642;28;20061;-74
2021/03/01 03:05:27;;;;;;;148.82;27.23;;;1.70;99.90;;;;;;4968945;28;20039;-74
2021/03/01 03:07:54;;;;;;;118.13;22.10;;;1.80;99.90;;;;;;4967106;28;20058;-76
2021/03/01 03:10:21;;;;;;;145.93;30.67;;;1.80;99.90;;;;;;4969313;28;20057;-77
2021/03/01 03:12:48;;;;;;;187.52;27.88;;;1.70;99.90;;;;;;4968362;28;20042;-75
2021/03/01 03:15:21;;;;;;;184.20;26.17;;;1.80;99.90;;;;;;4985053;28;20414;-75
2021/03/01 03:17:50;;;;;;;183.63;32.47;;;1.80;99.90;;;;;;4985630;28;20054;-74
2021/03/01 03:20:17;;;;;;;169.30;27.98;;;1.80;99.90;;;;;;4983394;28;20049;-75
2021/03/01 03:22:43;;;;;;;214.40;30.10;;;1.80;99.90;;;;;;4986787;28;20143;-74
2021/03/01 03:25:10;;;;;;;179.18;30.05;;;1.70;99.90;;;;;;4991619;28;20042;-75
2021/03/01 03:27:37;;;;;;;165.35;29.08;;;1.80;99.90;;;;;;4994113;28;20055;-75
2021/03/01 03:30:10;;;;;;;173.65;26.23;;;1.80;99.90;;;;;;4985191;28;20050;-75
2021/03/01 03:32:37;;;;;;;245.65;34.28;;;1.80;99.90;;;;;;5000314;28;20050;-75
2021/03/01 03:35:06;;;;;;;128.88;26.33;;;1.70;99.90;;;;;;4969118;28;20046;-76
2021/03/01 03:37:37;;;;;;;235.13;34.45;;;1.80;99.90;;;;;;4952501;28;20577;-74
2021/03/01 03:40:05;;;;;;;206.75;34.10;;;1.70;99.90;;;;;;4985299;28;20084;-76
2021/03/01 03:42:33;;;;;;;158.02;26.30;;;1.80;99.90;;;;;;4986085;28;20057;-76
2021/03/01 03:45:01;;;;;;;152.65;24.58;;;1.80;99.90;;;;;;4985258;28;20050;-76
2021/03/01 03:47:28;;;;;;;206.77;32.80;;;1.80;99.90;;;;;;4969006;28;20050;-76
2021/03/01 03:49:56;;;;;;;198.45;34.28;;;1.80;99.90;;;;;;4968484;28;20590;-75
2021/03/01 03:52:30;;;;;;;192.35;32.90;;;1.80;99.90;;;;;;4967706;28;20054;-74
2021/03/01 03:54:58;;;;;;;132.68;26.95;;;1.90;99.90;;;;;;4969303;28;20050;-76
2021/03/01 03:57:28;;;;;;;186.20;30.40;;;1.90;99.90;;;;;;5001603;28;20077;-76
2021/03/01 03:59:55;;;;;;;196.43;30.85;;;1.70;99.90;;;;;;4972666;28;20042;-75
2021/03/01 04:02:23;;;;;;;167.07;31.48;;;1.70;99.90;;;;;;4988590;28;20055;-75
2021/03/01 04:04:51;;;;;;;181.98;31.75;;;1.80;99.90;;;;;;4993159;28;20058;-75
2021/03/01 04:07:19;;;;;;;120.57;23.77;;;1.80;99.90;;;;;;4987638;28;20384;-74
2021/03/01 04:09:46;;;;;;;94.07;22.33;;;1.90;99.90;;;;;;4955667;28;20243;-75
2021/03/01 04:12:14;;;;;;;135.02;23.75;;;1.90;99.90;;;;;;4987617;28;20053;-74
2021/03/01 04:14:44;;;;;;;198.43;34.13;;;1.80;99.90;;;;;;4971513;28;20379;-76
2021/03/01 04:17:13;;;;;;;156.43;25.67;;;1.80;99.90;;;;;;4987546;28;20046;-75
2021/03/01 04:19:41;;;;;;;115.90;22.85;;;1.80;99.90;;;;;;4987751;28;20081;-76
2021/03/01 04:22:08;;;;;;;249.38;40.63;;;1.90;99.90;;;;;;4970222;28;20053;-74
2021/03/01 04:24:39;;;;;;;130.57;22.92;;;2.00;99.90;;;;;;4987520;28;20112;-75
2021/03/01 04:27:07;;;;;;;137.50;25.42;;;2.00;99.90;;;;;;4987197;28;20130;-75
2021/03/01 04:29:34;;;;;;;141.05;27.70;;;1.90;99.90;;;;;;4987333;28;20038;-73
2021/03/01 04:32:01;;;;;;;145.52;23.55;;;1.90;99.90;;;;;;5003533;28;20057;-76
2021/03/01 04:34:28;;;;;;;67.05;16.95;;;1.80;99.90;;;;;;5004038;28;20196;-76
2021/03/01 04:36:55;;;;;;;219.20;36.60;;;1.80;99.90;;;;;;4993727;28;20046;-76
2021/03/01 04:39:24;;;;;;;186.60;31.15;;;1.80;99.90;;;;;;4989422;28;20053;-77
2021/03/01 04:41:52;;;;;;;154.55;24.38;;;1.60;99.90;;;;;;4990089;28;20055;-76
2021/03/01 04:44:19;;;;;;;179.05;27.90;;;1.50;99.90;;;;;;4970922;28;20054;-77
2021/03/01 04:46:51;;;;;;;139.85;23.88;;;1.50;99.90;;;;;;4971207;28;20047;-77
2021/03/01 04:49:19;;;;;;;178.40;24.60;;;1.60;99.90;;;;;;4987698;28;20133;-77
2021/03/01 04:51:45;;;;;;;173.90;29.55;;;1.70;99.90;;;;;;4969796;28;20492;-77
2021/03/01 04:54:12;;;;;;;137.40;26.15;;;1.70;99.90;;;;;;5002629;28;20058;-76
2021/03/01 04:56:45;;;;;;;97.60;19.60;;;1.70;99.90;;;;;;4954759;28;20051;-76
2021/03/01 04:59:18;;;;;;;173.55;25.35;;;1.70;99.90;;;;;;4967098;28;20038;-77
2021/03/01 05:01:47;;;;;;;135.25;24.20;;;1.80;99.90;;;;;;4969954;28;20054;-75
2021/03/01 05:04:15;;;;;;;164.82;30.50;;;1.80;99.90;;;;;;4979060;28;20414;-78
2021/03/01 05:06:41;;;;;;;166.82;29.38;;;1.70;99.90;;;;;;4990047;28;20640;-77
2021/03/01 05:09:09;;;;;;;192.73;30.85;;;1.70;99.90;;;;;;4986826;28;20057;-77
2021/03/01 05:11:37;;;;;;;153.43;24.95;;;1.70;99.90;;;;;;4987888;28;20372;-77
2021/03/01 05:14:06;;;;;;;224.57;29.15;;;1.60;99.90;;;;;;4987413;28;20050;-77
2021/03/01 05:16:33;;;;;;;225.57;31.23;;;1.70;99.90;;;;;;4985220;28;20522;-76
2021/03/01 05:18:59;;;;;;;135.10;21.67;;;1.60;99.90;;;;;;4958556;28;20067;-75
2021/03/01 05:21:26;;;;;;;199.13;30.17;;;1.40;99.90;;;;;;4973222;28;20450;-77
2021/03/01 05:23:52;;;;;;;205.18;27.33;;;1.30;99.90;;;;;;4993680;28;20046;-77
2021/03/01 05:26:19;;;;;;;302.00;40.85;;;1.30;99.90;;;;;;4972947;28;20043;-76
2021/03/01 05:28:46;;;;;;;224.40;35.28;;;1.30;99.90;;;;;;4986930;28;20134;-77
2021/03/01 05:31:12;;;;;;;192.93;27.67;;;1.30;99.90;;;;;;4986548;28;20050;-77
2021/03/01 05:33:39;;;;;;;195.27;30.17;;;1.30;99.90;;;;;;4968672;28;20042;-75
2021/03/01 05:36:06;;;;;;;169.25;27.33;;;1.10;99.90;;;;;;4979320;28;20053;-76
2021/03/01 05:38:32;;;;;;;185.07;32.08;;;1.20;99.90;;;;;;4988436;28;20039;-76
2021/03/01 05:41:02;;;;;;;165.15;27.92;;;1.30;99.90;;;;;;4969731;28;20046;-77
2021/03/01 05:43:29;;;;;;;183.38;29.05;;;1.30;99.90;;;;;;4969108;28;20042;-76
2021/03/01 05:45:58;;;;;;;163.18;25.02;;;1.20;99.90;;;;;;4939885;28;20161;-76
2021/03/01 05:48:26;;;;;;;213.52;31.98;;;1.20;99.90;;;;;;4959513;28;20042;-76
2021/03/01 05:51:01;;;;;;;182.48;30.23;;;1.20;99.90;;;;;;4965418;28;20039;-76
2021/03/01 05:53:36;;;;;;;224.23;35.63;;;1.30;99.90;;;;;;4962252;28;20130;-77
2021/03/01 05:56:04;;;;;;;206.30;30.25;;;1.40;99.90;;;;;;4962166;28;20063;-76
2021/03/01 05:58:31;;;;;;;202.18;35.00;;;1.30;99.90;;;;;;4931676;29;20070;-76
2021/03/01 06:01:03;;;;;;;169.48;27.30;;;1.20;99.90;;;;;;4930750;29;20078;-76
2021/03/01 06:03:34;;;;;;;177.10;29.75;;;1.20;99.90;;;;;;4947037;29;20057;-76
2021/03/01 06:06:02;;;;;;;151.73;26.25;;;1.20;99.90;;;;;;4955773;28;20062;-76
2021/03/01 06:08:30;;;;;;;191.55;27.27;;;1.20;99.90;;;;;;4989153;28;20048;-76
2021/03/01 06:10:59;;;;;;;199.32;34.72;;;1.20;99.90;;;;;;4963806;28;20129;-77
2021/03/01 06:13:26;;;;;;;193.75;28.83;;;1.20;99.90;;;;;;4960709;28;20050;-77
2021/03/01 06:15:54;;;;;;;202.77;30.75;;;1.20;99.90;;;;;;4968854;28;20042;-77
2021/03/01 06:18:21;;;;;;;167.52;27.95;;;1.30;99.90;;;;;;4986805;28;20145;-77
2021/03/01 06:20:48;;;;;;;170.40;33.85;;;1.30;99.90;;;;;;4967774;28;20053;-77
2021/03/01 06:23:32;;;;;;;202.05;28.73;;;1.20;99.90;;;;;;4984495;28;20133;-76
2021/03/01 06:26:33;;;;;;;270.85;40.92;;;1.30;99.90;;;;;;4954254;28;20196;-75
2021/03/01 06:29:02;;;;;;;169.88;27.02;;;1.20;99.90;;;;;;4966842;28;20138;-77
2021/03/01 06:31:36;;;;;;;243.35;34.22;;;1.30;99.90;;;;;;4960291;28;20061;-75
2021/03/01 06:34:19;;;;;;;180.73;29.70;;;1.30;99.90;;;;;;4985038;28;20053;-76
2021/03/01 06:36:57;;;;;;;228.75;33.22;;;1.30;99.90;;;;;;4984883;28;20046;-76
2021/03/01 06:39:34;;;;;;;215.95;32.03;;;1.30;99.90;;;;;;4971750;28;20368;-76
2021/03/01 06:42:19;;;;;;;170.55;30.40;;;1.30;99.90;;;;;;4994682;28;20089;-78
2021/03/01 06:44:46;;;;;;;163.63;24.43;;;1.40;99.90;;;;;;4985163;28;20050;-76
2021/03/01 06:47:13;;;;;;;185.32;28.67;;;1.40;99.90;;;;;;4986153;28;20304;-76
2021/03/01 06:49:42;;;;;;;160.50;25.85;;;1.50;99.90;;;;;;4985001;28;20132;-76
2021/03/01 06:52:08;;;;;;;194.98;31.75;;;1.50;99.90;;;;;;4967202;28;20046;-77
2021/03/01 06:54:35;;;;;;;175.32;28.00;;;1.50;99.90;;;;;;4984810;28;20047;-77
2021/03/01 06:57:02;;;;;;;220.50;35.72;;;1.50;99.90;;;;;;4952393;28;20050;-76
2021/03/01 06:59:29;;;;;;;150.50;27.45;;;1.50;99.90;;;;;;4965865;28;20050;-77
2021/03/01 07:01:58;;;;;;;116.97;20.70;;;1.50;99.90;;;;;;4966113;28;20047;-76
2021/03/01 07:04:30;;;;;;;210.57;32.13;;;1.50;99.90;;;;;;4985009;28;20047;-76
2021/03/01 07:06:58;;;;;;;169.60;24.40;;;1.50;99.90;;;;;;4981474;28;20061;-76
2021/03/01 07:09:26;;;;;;;218.73;33.85;;;1.50;99.90;;;;;;4985029;28;20069;-77
2021/03/01 07:11:54;;;;;;;204.10;29.40;;;1.50;99.90;;;;;;4986025;28;20156;-77
2021/03/01 07:14:24;;;;;;;189.48;30.30;;;1.50;99.90;;;;;;4969049;28;20046;-76
2021/03/01 07:16:55;;;;;;;197.70;31.20;;;1.40;99.90;;;;;;4953246;28;20058;-77
2021/03/01 07:19:31;;;;;;;160.27;20.70;;;1.50;99.90;;;;;;4992086;28;20143;-77
2021/03/01 07:22:00;;;;;;;217.68;29.88;;;1.40;99.90;;;;;;5000304;28;20057;-77
2021/03/01 07:24:30;;;;;;;168.15;25.13;;;1.40;99.90;;;;;;4968904;28;20491;-77
2021/03/01 07:26:58;;;;;;;155.63;24.25;;;1.40;99.90;;;;;;4984416;28;20774;-77
2021/03/01 07:29:29;;;;;;;123.00;20.90;;;1.40;99.90;;;;;;4969262;28;20544;-77
2021/03/01 07:32:01;;;;;;;154.27;23.67;;;1.40;99.90;;;;;;4984904;28;20046;-76
2021/03/01 07:34:29;;;;;;;92.65;15.35;;;1.50;99.90;;;;;;4988173;28;20685;-77
2021/03/01 07:36:57;;;;;;;110.70;18.70;;;1.50;99.90;;;;;;4973269;28;20050;-76
2021/03/01 07:39:25;;;;;;;115.40;20.35;;;1.40;99.90;;;;;;4972652;28;20046;-77
2021/03/01 07:41:53;;;;;;;120.35;16.70;;;1.40;99.90;;;;;;4989647;28;20407;-78
2021/03/01 07:44:28;;;;;;;112.22;20.65;;;1.30;99.90;;;;;;4956732;28;20145;-77
2021/03/01 07:46:56;;;;;;;131.73;22.92;;;1.40;99.90;;;;;;4988343;28;20621;-77
2021/03/01 07:49:42;;;;;;;74.10;13.43;;;1.40;99.90;;;;;;4981083;28;20612;-76
2021/03/01 07:52:20;;;;;;;106.10;16.63;;;1.40;99.90;;;;;;4992707;28;20305;-77
2021/03/01 07:54:52;;;;;;;95.47;18.55;;;1.50;99.90;;;;;;4988768;28;20050;-77
2021/03/01 07:57:20;;;;;;;91.55;16.83;;;1.50;99.90;;;;;;4972059;28;20141;-76
2021/03/01 07:59:46;;;;;;;108.07;20.90;;;1.70;99.90;;;;;;4989883;28;20050;-76
2021/03/01 08:02:16;;;;;;;101.68;18.20;;;1.70;99.90;;;;;;4987732;28;20046;-78
2021/03/01 08:04:43;;;;;;;157.90;23.83;;;1.70;99.90;;;;;;4972468;28;20395;-78
2021/03/01 08:07:10;;;;;;;102.28;16.95;;;1.60;99.90;;;;;;4988058;28;20051;-77
2021/03/01 08:09:42;;;;;;;129.30;21.45;;;1.50;99.90;;;;;;4993704;28;20046;-78
2021/03/01 08:12:09;;;;;;;93.07;16.60;;;1.50;99.90;;;;;;4983261;28;20069;-76
2021/03/01 08:14:51;;;;;;;65.90;13.50;;;1.60;99.90;;;;;;4971991;28;20065;-76
2021/03/01 08:17:28;;;;;;;96.65;15.93;;;1.60;99.90;;;;;;4984655;28;20179;-77
2021/03/01 08:19:57;;;;;;;102.70;18.95;;;1.60;99.90;;;;;;4998303;28;20649;-76
2021/03/01 08:22:25;;;;;;;67.50;15.82;;;1.60;99.90;;;;;;4990722;28;20065;-76
2021/03/01 08:24:56;;;;;;;52.60;14.20;;;1.60;99.90;;;;;;4998147;28;20412;-76
2021/03/01 08:27:25;;;;;;;58.72;13.88;;;1.60;99.90;;;;;;4962200;28;20069;-77
2021/03/01 08:30:24;;;;;;;70.75;16.40;;;1.60;99.90;;;;;;4971763;28;20061;-77
2021/03/01 08:33:08;;;;;;;67.47;15.82;;;1.70;99.90;;;;;;4971312;28;20058;-77
2021/03/01 08:35:43;;;;;;;61.75;11.40;;;1.80;99.90;;;;;;4969212;28;20051;-77
2021/03/01 08:38:12;;;;;;;65.88;12.40;;;1.80;99.90;;;;;;4982832;28;20050;-76
2021/03/01 08:40:57;;;;;;;101.45;19.10;;;1.60;99.90;;;;;;4991648;28;20522;-77
2021/03/01 08:43:40;;;;;;;105.72;17.83;;;1.70;99.90;;;;;;5000413;28;20133;-77
2021/03/01 08:46:16;;;;;;;58.70;13.88;;;1.70;99.90;;;;;;4987373;28;20486;-77
2021/03/01 08:48:45;;;;;;;40.78;11.27;;;1.80;99.90;;;;;;4971252;28;20038;-76
2021/03/01 08:51:12;;;;;;;73.07;13.13;;;1.80;99.90;;;;;;5006907;28;20048;-76
2021/03/01 08:53:40;;;;;;;66.90;11.88;;;1.80;99.90;;;;;;4992204;28;20080;-77
2021/03/01 08:56:26;;;;;;;71.85;15.90;;;1.70;99.90;;;;;;4993318;28;20287;-77
2021/03/01 08:58:53;;;;;;;48.00;10.93;;;1.80;99.90;;;;;;4986686;28;20076;-78
2021/03/01 09:01:21;;;;;;;41.85;11.60;;;2.00;99.90;;;;;;4952881;28;20050;-75
2021/03/01 09:03:48;;;;;;;77.25;13.68;;;2.10;99.90;;;;;;4971819;28;20147;-77
2021/03/01 09:06:20;;;;;;;32.50;10.20;;;2.00;99.90;;;;;;4970452;28;20708;-77
2021/03/01 09:08:52;;;;;;;58.08;10.75;;;2.10;99.90;;;;;;4987636;28;20061;-75
2021/03/01 09:11:20;;;;;;;35.30;10.70;;;1.90;99.90;;;;;;4986968;28;20059;-76
2021/03/01 09:13:49;;;;;;;39.50;10.90;;;2.00;99.90;;;;;;4970950;28;20109;-76
2021/03/01 09:16:23;;;;;;;27.92;9.82;;;2.10;99.90;;;;;;4970463;28;20047;-76
2021/03/01 09:18:51;;;;;;;30.10;10.07;;;2.10;99.90;;;;;;4971035;28;20709;-76
2021/03/01 09:21:19;;;;;;;43.33;11.18;;;2.10;99.90;;;;;;4954846;28;20050;-78
2021/03/01 09:23:50;;;;;;;32.22;10.50;;;2.20;99.90;;;;;;4986661;28;20058;-77
2021/03/01 09:26:50;;;;;;;29.23;9.05;;;2.20;99.90;;;;;;4988468;28;20056;-76
2021/03/01 09:29:20;;;;;;;30.75;10.32;;;2.10;99.90;;;;;;4968837;28;20062;-77
2021/03/01 09:31:47;;;;;;;27.30;8.35;;;2.20;99.90;;;;;;4969791;28;20043;-77
2021/03/01 09:34:16;;;;;;;32.05;11.38;;;2.30;99.90;;;;;;5003338;28;20419;-75
2021/03/01 09:36:50;;;;;;;39.92;10.88;;;2.30;99.90;;;;;;4970563;28;20058;-76
2021/03/01 09:39:25;;;;;;;29.73;10.50;;;2.30;99.90;;;;;;4982666;28;20046;-77
2021/03/01 09:41:52;;;;;;;;;;;2.40;99.90;;;;;;4977717;28;20788;-75
2021/03/01 09:44:24;;;;;;;29.17;9.98;;;2.40;99.90;;;;;;4970505;28;19921;-77
2021/03/01 09:46:52;;;;;;;33.25;9.77;;;2.40;99.90;;;;;;4970240;28;20046;-77
2021/03/01 09:49:19;;;;;;;33.13;10.90;;;2.30;99.90;;;;;;5003407;28;20503;-77
2021/03/01 09:51:46;;;;;;;33.00;10.88;;;2.30;99.90;;;;;;4986208;28;20526;-77
2021/03/01 09:54:13;;;;;;;30.55;11.82;;;2.30;99.90;;;;;;4976707;28;20057;-76
2021/03/01 09:56:44;;;;;;;23.27;10.90;;;2.40;99.90;;;;;;4977330;28;20050;-77
2021/03/01 09:59:11;;;;;;;29.88;9.00;;;2.50;99.90;;;;;;4969026;28;20047;-76
2021/03/01 10:01:38;;;;;;;24.67;10.48;;;2.60;99.90;;;;;;4968352;28;20050;-77
2021/03/01 10:04:07;;;;;;;31.23;9.50;;;2.60;99.90;;;;;;4976149;28;20107;-77
2021/03/01 10:06:42;;;;;;;18.60;7.10;;;2.50;99.90;;;;;;4969344;28;20039;-76
2021/03/01 10:09:10;;;;;;;50.85;11.75;;;2.40;99.90;;;;;;4954149;28;20467;-76
2021/03/01 10:11:38;;;;;;;33.90;10.32;;;2.40;99.90;;;;;;4976832;28;20054;-76
2021/03/01 10:14:10;;;;;;;39.00;11.30;;;2.40;99.90;;;;;;4986029;28;20060;-76
2021/03/01 10:16:39;;;;;;;28.05;11.02;;;2.40;99.90;;;;;;4968660;28;20053;-77
2021/03/01 10:19:24;;;;;;;22.65;10.77;;;2.50;99.90;;;;;;4958989;28;20133;-76
2021/03/01 10:21:50;;;;;;;22.73;10.27;;;2.70;99.90;;;;;;5005588;28;20050;-76
2021/03/01 10:24:20;;;;;;;20.67;9.40;;;2.90;99.90;;;;;;4983335;28;20081;-76
2021/03/01 10:26:54;;;;;;;20.58;9.73;;;3.00;99.90;;;;;;4969375;28;20137;-77
2021/03/01 10:29:41;;;;;;;18.00;9.43;;;3.00;99.90;;;;;;4985659;28;20419;-76
2021/03/01 10:32:26;;;;;;;34.25;10.38;;;2.90;99.90;;;;;;4969150;28;20046;-75
2021/03/01 10:34:54;;;;;;;20.38;8.88;;;2.90;99.90;;;;;;4989168;28;20141;-74
2021/03/01 10:37:23;;;;;;;22.10;9.00;;;2.90;99.90;;;;;;4970876;28;20078;-74
2021/03/01 10:39:50;;;;;;;21.50;11.43;;;2.90;99.90;;;;;;5002009;28;20089;-75
2021/03/01 10:42:19;;;;;;;23.52;9.10;;;2.80;99.90;;;;;;4984977;28;20135;-75
2021/03/01 10:44:54;;;;;;;21.13;9.55;;;2.90;99.90;;;;;;4985657;28;20050;-76
2021/03/01 10:47:32;;;;;;;16.58;9.18;;;3.00;99.90;;;;;;4968681;28;20042;-74
2021/03/01 10:50:25;;;;;;;15.68;8.80;;;3.10;99.90;;;;;;4982153;28;20563;-74
2021/03/01 10:52:51;;;;;;;25.77;9.85;;;3.20;99.90;;;;;;4971730;28;20514;-76
2021/03/01 10:55:18;;;;;;;22.77;9.95;;;3.10;99.90;;;;;;4985547;28;20046;-75
2021/03/01 10:57:44;;;;;;;17.95;9.38;;;3.10;99.90;;;;;;4985870;28;20082;-75
2021/03/01 11:00:11;;;;;;;22.25;10.20;;;3.20;99.90;;;;;;4986164;28;20192;-74
2021/03/01 11:02:37;;;;;;;22.63;12.52;;;3.20;99.90;;;;;;4985525;28;20332;-74
2021/03/01 11:05:04;;;;;;;24.15;9.70;;;3.20;99.90;;;;;;4975249;28;20054;-76
2021/03/01 11:07:31;;;;;;;19.67;10.38;;;3.30;99.90;;;;;;4986749;28;20069;-74
2021/03/01 11:09:57;;;;;;;15.63;8.70;;;3.40;99.90;;;;;;4973538;28;20060;-75
2021/03/01 11:12:23;;;;;;;17.67;10.00;;;3.60;99.90;;;;;;4988405;28;20057;-74
2021/03/01 11:14:50;;;;;;;17.25;9.70;;;3.60;99.90;;;;;;4989789;28;20058;-75
2021/03/01 11:17:16;;;;;;;19.13;10.65;;;3.70;99.90;;;;;;4988920;28;20054;-75
2021/03/01 11:19:43;;;;;;;20.98;9.48;;;3.70;99.90;;;;;;4973003;28;20585;-75
2021/03/01 11:22:09;;;;;;;15.07;8.30;;;3.60;99.90;;;;;;5005087;28;20046;-75
2021/03/01 11:24:35;;;;;;;18.08;9.95;;;3.50;99.90;;;;;;4972914;28;20054;-75
2021/03/01 11:27:02;;;;;;;16.60;9.30;;;3.70;99.90;;;;;;4986949;28;20046;-75
2021/03/01 11:29:29;;;;;;;14.77;10.00;;;3.90;99.90;;;;;;4972380;28;20046;-76
2021/03/01 11:31:55;;;;;;;16.50;9.98;;;3.90;99.90;;;;;;4988655;28;20046;-75
2021/03/01 11:34:22;;;;;;;14.23;9.27;;;4.10;99.90;;;;;;4988829;28;20426;-75
2021/03/01 11:36:49;;;;;;;16.17;9.90;;;4.20;99.90;;;;;;5005196;28;20407;-76
2021/03/01 11:39:15;;;;;;;15.63;10.05;;;4.30;99.90;;;;;;4995802;28;20088;-75
2021/03/01 11:41:42;;;;;;;16.95;10.45;;;4.30;99.90;;;;;;4971180;28;20133;-76
2021/03/01 11:44:09;;;;;;;15.02;9.40;;;4.40;99.90;;;;;;4972766;28;20050;-73
2021/03/01 11:46:36;;;;;;;15.20;10.55;;;4.40;99.90;;;;;;4972368;28;20665;-76
2021/03/01 11:49:04;;;;;;;15.00;9.25;;;4.30;99.90;;;;;;5005542;28;20050;-75
2021/03/01 11:51:31;;;;;;;20.10;11.38;;;4.30;99.90;;;;;;4989682;28;20132;-75
2021/03/01 11:53:57;;;;;;;16.27;11.20;;;4.30;99.90;;;;;;4971060;28;20057;-73
2021/03/01 11:56:23;;;;;;;17.77;11.82;;;4.30;99.90;;;;;;4994794;28;20050;-73
2021/03/01 11:58:49;;;;;;;22.42;12.35;;;4.50;99.90;;;;;;4993299;28;20057;-73
2021/03/01 12:01:16;;;;;;;19.50;12.27;;;4.60;99.90;;;;;;4972128;28;20050;-74
2021/03/01 12:03:42;;;;;;;21.35;13.18;;;4.50;99.90;;;;;;4997295;28;20523;-74
2021/03/01 12:06:10;;;;;;;27.15;14.32;;;4.50;99.90;;;;;;4976775;28;20388;-76
2021/03/01 12:08:36;;;;;;;31.38;13.65;;;4.40;99.90;;;;;;4970413;28;20065;-73
2021/03/01 12:11:03;;;;;;;25.80;17.45;;;4.30;99.90;;;;;;4987892;28;20128;-73
2021/03/01 12:13:30;;;;;;;25.10;13.50;;;4.30;99.90;;;;;;4987658;28;20042;-74
2021/03/01 12:15:57;;;;;;;21.13;14.35;;;4.20;99.90;;;;;;4969592;28;20496;-72
2021/03/01 12:18:23;;;;;;;19.70;12.10;;;4.20;99.90;;;;;;4983854;28;20136;-73
2021/03/01 12:20:50;;;;;;;14.27;9.73;;;4.10;99.90;;;;;;5003594;28;20112;-72
2021/03/01 12:23:16;;;;;;;20.45;13.95;;;4.10;99.90;;;;;;4970954;28;20046;-73
2021/03/01 12:25:42;;;;;;;21.60;12.48;;;4.20;99.90;;;;;;4987471;28;20052;-73
2021/03/01 12:28:09;;;;;;;23.17;13.57;;;4.40;99.90;;;;;;4987172;28;20050;-74
2021/03/01 12:30:35;;;;;;;22.90;13.82;;;4.50;99.90;;;;;;4987261;28;20043;-73
2021/03/01 12:33:02;;;;;;;16.40;11.88;;;4.60;99.90;;;;;;4999807;28;20141;-70
2021/03/01 12:35:30;;;;;;;18.83;13.00;;;4.60;99.90;;;;;;4992846;28;20486;-74
2021/03/01 12:37:58;;;;;;;19.77;11.88;;;4.60;99.90;;;;;;4984343;28;20042;-72
2021/03/01 12:40:25;;;;;;;20.83;13.98;;;4.60;99.90;;;;;;4988386;28;20428;-73
2021/03/01 12:42:52;;;;;;;19.73;13.15;;;4.60;99.90;;;;;;4992747;28;20121;-72
2021/03/01 12:45:19;;;;;;;18.23;13.20;;;4.70;99.90;;;;;;4987286;28;20050;-73